UGKO/KIU METAR and TAF weather

Enter ICAO airport designator
Station Type Date Time Source
UGKO METAR 2018/12/15 20:30 UTC NOAA

UGKO 152030Z 07006KT 9999 BKN045 08/02 Q1025 NOSIG


Station Type Date Time Source
UGKO Decoded METAR 2018/12/15 20:30 UTC NOAA

Station name not available
Dec 15, 2018 - 03:30 PM EST / 2018.12.15 2030 UTC
Wind: from the ENE (070 degrees) at 7 MPH (6 KT):0
Visibility: greater than 7 mile(s):0
Sky conditions: mostly cloudy
Temperature: 46 F (8 C)
Dew Point: 35 F (2 C)
Relative Humidity: 65%
Pressure (altimeter): 30.27 in. Hg (1025 hPa)
ob: UGKO 152030Z 07006KT 9999 BKN045 08/02 Q1025 NOSIG
cycle: 20

Station Type Date Time Source
UGKO TAF 2018/12/15 18:04 UTC NOAA

TAF UGKO 151700Z 1518/1618 08009KT 9999 BKN048 TX15/1611Z TN05/1520Z


Example: see airport list